createdAt,value
2023-03-18T00:00:19.111Z,49.13
2023-03-18T00:02:48.874Z,49.21
2023-03-18T00:05:18.347Z,49.17
2023-03-18T00:07:49.491Z,49.19
2023-03-18T00:10:18.903Z,49.35
2023-03-18T00:12:47.974Z,49.56
2023-03-18T00:15:18.372Z,49.28
2023-03-18T00:17:48.541Z,49.36
2023-03-18T00:20:18.586Z,49.29
2023-03-18T00:22:49.129Z,49.52
2023-03-18T00:25:17.888Z,49.28
2023-03-18T00:27:46.562Z,49.29
2023-03-18T00:30:16.053Z,48.88
2023-03-18T00:32:44.801Z,48.96
2023-03-18T00:35:13.703Z,48.99
2023-03-18T00:37:42.609Z,49.07
2023-03-18T00:40:17.455Z,48.82
2023-03-18T00:42:50.653Z,48.85
2023-03-18T00:45:19.762Z,49.19
2023-03-18T00:47:50.241Z,49.18
2023-03-18T00:50:19.381Z,49.36
2023-03-18T00:52:49.383Z,49.44
2023-03-18T00:55:20.460Z,49.43
2023-03-18T00:57:49.207Z,49.42
2023-03-18T01:00:19.765Z,49.38
2023-03-18T01:02:49.754Z,49.40
2023-03-18T01:05:18.659Z,49.21
2023-03-18T01:07:48.488Z,49.19
2023-03-18T01:10:19.050Z,49.06
2023-03-18T01:12:48.354Z,49.02
2023-03-18T01:15:19.466Z,48.86
2023-03-18T01:17:49.268Z,48.73
2023-03-18T01:20:20.536Z,48.58
2023-03-18T01:22:53.527Z,48.65
2023-03-18T01:25:24.105Z,48.48
2023-03-18T01:27:55.680Z,48.13
2023-03-18T01:30:24.813Z,48.03
2023-03-18T01:32:55.741Z,47.72
2023-03-18T01:35:25.711Z,48.15
2023-03-18T01:37:54.878Z,47.87
2023-03-18T01:40:25.741Z,47.78
2023-03-18T01:43:06.011Z,47.83
2023-03-18T01:45:36.826Z,47.68
2023-03-18T01:48:06.069Z,47.54
2023-03-18T01:50:38.360Z,47.61
2023-03-18T01:53:10.848Z,47.68
2023-03-18T01:55:41.939Z,47.59
2023-03-18T01:58:18.588Z,47.74
2023-03-18T02:00:54.679Z,47.71
2023-03-18T02:03:23.886Z,47.86
2023-03-18T02:05:53.825Z,47.96
2023-03-18T02:08:24.212Z,47.82
2023-03-18T02:10:56.010Z,47.84
2023-03-18T02:13:26.398Z,47.62
2023-03-18T02:16:00.788Z,47.62
2023-03-18T02:18:35.617Z,47.41
2023-03-18T02:21:20.809Z,47.46
2023-03-18T02:23:59.439Z,47.41
2023-03-18T02:26:34.818Z,47.00
2023-03-18T02:29:10.002Z,47.02
2023-03-18T02:31:51.017Z,47.30
2023-03-18T02:34:26.641Z,47.08
2023-03-18T02:36:58.327Z,46.83
2023-03-18T02:39:29.979Z,46.88
2023-03-18T02:41:59.639Z,46.96
2023-03-18T02:44:30.296Z,46.97
2023-03-18T02:47:23.037Z,46.93
2023-03-18T02:49:52.729Z,47.07
2023-03-18T02:52:22.009Z,47.03
2023-03-18T02:54:51.527Z,47.04
2023-03-18T02:57:20.542Z,47.07
2023-03-18T02:59:51.199Z,46.96
2023-03-18T03:02:20.007Z,47.16
2023-03-18T03:04:49.260Z,46.92
2023-03-18T03:07:20.000Z,46.99
2023-03-18T03:09:53.108Z,47.03
2023-03-18T03:12:23.023Z,47.29
2023-03-18T03:14:57.782Z,47.09
2023-03-18T03:17:29.758Z,47.04
2023-03-18T03:19:58.982Z,47.12
2023-03-18T03:22:28.356Z,47.30
2023-03-18T03:24:57.121Z,47.05
2023-03-18T03:27:26.140Z,47.38
2023-03-18T03:29:57.345Z,47.16
2023-03-18T03:32:26.289Z,47.36
2023-03-18T03:34:55.053Z,47.14
2023-03-18T03:37:23.767Z,47.02
2023-03-18T03:39:52.462Z,47.11
2023-03-18T03:42:21.238Z,46.73
2023-03-18T03:44:49.994Z,47.02
2023-03-18T03:47:21.356Z,46.91
2023-03-18T03:49:50.149Z,47.00
2023-03-18T03:52:20.024Z,47.22
2023-03-18T03:54:50.406Z,46.98
2023-03-18T03:57:19.354Z,47.00
2023-03-18T03:59:48.107Z,46.84
2023-03-18T04:02:23.677Z,46.92
2023-03-18T04:04:52.832Z,47.03
2023-03-18T04:07:30.767Z,47.04
2023-03-18T04:09:59.527Z,47.33
2023-03-18T04:12:28.532Z,47.05
2023-03-18T04:15:01.301Z,46.86
2023-03-18T04:17:31.712Z,46.99
2023-03-18T04:20:00.354Z,46.70
2023-03-18T04:22:32.655Z,47.06
2023-03-18T04:25:03.368Z,46.88
2023-03-18T04:27:32.319Z,46.96
2023-03-18T04:30:06.854Z,46.89
2023-03-18T04:32:43.377Z,46.96
2023-03-18T04:35:12.668Z,46.69
2023-03-18T04:37:41.611Z,46.94
2023-03-18T04:40:12.017Z,46.90
2023-03-18T04:42:41.479Z,46.93
2023-03-18T04:45:12.993Z,47.11
2023-03-18T04:47:43.556Z,47.01
2023-03-18T04:50:13.752Z,47.11
2023-03-18T04:52:43.772Z,47.09
2023-03-18T04:55:16.468Z,46.81
2023-03-18T04:57:45.799Z,46.92
2023-03-18T05:00:21.388Z,46.76
2023-03-18T05:02:54.463Z,47.03
2023-03-18T05:05:26.227Z,46.76
2023-03-18T05:07:55.889Z,47.19
2023-03-18T05:10:25.986Z,47.39
2023-03-18T05:12:55.262Z,47.62
2023-03-18T05:15:31.877Z,47.60
2023-03-18T05:18:02.438Z,47.81
2023-03-18T05:20:31.690Z,47.82
2023-03-18T05:23:02.053Z,47.76
2023-03-18T05:25:42.102Z,47.82
2023-03-18T05:28:12.502Z,48.00
2023-03-18T05:30:50.746Z,47.87
2023-03-18T05:33:23.250Z,47.86
2023-03-18T05:35:57.625Z,47.60
2023-03-18T05:38:32.425Z,47.47
2023-03-18T05:41:01.991Z,47.51
2023-03-18T05:43:36.773Z,47.36
2023-03-18T05:46:05.975Z,47.36
2023-03-18T05:48:54.044Z,47.08
2023-03-18T05:51:25.146Z,47.53
2023-03-18T05:53:54.640Z,47.37
2023-03-18T05:56:31.221Z,47.32
2023-03-18T05:59:06.057Z,47.31
2023-03-18T06:01:44.689Z,47.38
2023-03-18T06:04:15.419Z,47.49
2023-03-18T06:06:44.662Z,47.48
2023-03-18T06:09:15.217Z,47.03
2023-03-18T06:11:46.486Z,47.01
2023-03-18T06:14:15.752Z,46.86
2023-03-18T06:16:45.472Z,47.13
2023-03-18T06:19:16.001Z,46.75
2023-03-18T06:21:44.791Z,46.73
2023-03-18T06:24:14.691Z,46.59
2023-03-18T06:26:43.569Z,46.39
2023-03-18T06:29:13.047Z,46.56
2023-03-18T06:31:41.837Z,46.42
2023-03-18T06:34:13.556Z,46.43
2023-03-18T06:36:43.616Z,46.68
2023-03-18T06:39:18.108Z,46.28
2023-03-18T06:41:47.637Z,46.16
2023-03-18T06:44:28.998Z,45.86
2023-03-18T06:47:02.806Z,45.79
2023-03-18T06:49:36.035Z,45.64
2023-03-18T06:52:15.026Z,45.36
2023-03-18T06:54:48.027Z,45.43
2023-03-18T06:57:18.892Z,45.14
2023-03-18T06:59:51.120Z,45.13
2023-03-18T07:02:19.966Z,45.07
2023-03-18T07:04:49.009Z,44.91
2023-03-18T07:07:20.197Z,44.59
2023-03-18T07:09:49.141Z,45.07
2023-03-18T07:12:17.889Z,44.91
2023-03-18T07:14:47.067Z,45.00
2023-03-18T07:17:16.293Z,44.22
2023-03-18T07:19:45.228Z,43.92
2023-03-18T07:22:15.850Z,43.42
2023-03-18T07:24:46.834Z,43.12
2023-03-18T07:27:16.714Z,42.83
2023-03-18T07:29:45.770Z,42.55
2023-03-18T07:32:14.746Z,42.39
2023-03-18T07:34:44.218Z,42.18
2023-03-18T07:37:13.262Z,41.65
2023-03-18T07:39:43.505Z,41.00
2023-03-18T07:42:13.988Z,41.48
2023-03-18T07:44:47.684Z,41.69
2023-03-18T07:47:16.467Z,41.17
2023-03-18T07:49:46.745Z,41.48
2023-03-18T07:52:16.128Z,41.30
2023-03-18T07:54:45.724Z,41.08
2023-03-18T07:57:15.984Z,41.88
2023-03-18T07:59:44.460Z,41.01
2023-03-18T08:02:14.510Z,40.64
2023-03-18T08:04:44.158Z,40.05
2023-03-18T08:07:13.229Z,40.11
2023-03-18T08:09:41.985Z,40.47
2023-03-18T08:12:11.107Z,40.52
2023-03-18T08:14:41.269Z,40.19
2023-03-18T08:17:10.258Z,40.32
2023-03-18T08:19:39.029Z,40.53
2023-03-18T08:22:08.194Z,40.30
2023-03-18T08:24:37.355Z,40.04
2023-03-18T08:27:06.860Z,40.34
2023-03-18T08:29:36.076Z,40.04
2023-03-18T08:32:06.720Z,40.09
2023-03-18T08:34:35.950Z,39.27
2023-03-18T08:37:05.048Z,39.87
2023-03-18T08:39:33.756Z,39.30
2023-03-18T08:42:05.334Z,39.46
2023-03-18T08:44:34.080Z,39.36
2023-03-18T08:47:03.053Z,39.00
2023-03-18T08:49:33.682Z,38.73
2023-03-18T08:52:03.019Z,39.13
2023-03-18T08:54:31.799Z,38.86
2023-03-18T08:57:00.715Z,38.90
2023-03-18T08:59:29.462Z,38.84
2023-03-18T09:01:58.583Z,38.85
2023-03-18T09:04:27.510Z,38.39
2023-03-18T09:06:57.800Z,38.47
2023-03-18T09:09:40.872Z,38.01
2023-03-18T09:12:14.150Z,38.35
2023-03-18T09:14:44.365Z,38.43
2023-03-18T09:17:13.303Z,37.67
2023-03-18T09:19:42.031Z,38.16
2023-03-18T09:22:12.768Z,38.01
2023-03-18T09:24:41.622Z,37.26
2023-03-18T09:27:10.507Z,37.41
2023-03-18T09:29:39.344Z,37.38
2023-03-18T09:32:08.727Z,37.74
2023-03-18T09:34:37.651Z,37.12
2023-03-18T09:37:06.456Z,37.94
2023-03-18T09:39:37.344Z,37.78
2023-03-18T09:42:29.326Z,37.93
2023-03-18T09:45:03.520Z,37.79
2023-03-18T09:48:01.095Z,37.97
2023-03-18T09:50:43.068Z,36.74
2023-03-18T09:53:22.501Z,37.05
2023-03-18T09:55:57.709Z,37.27
2023-03-18T09:58:36.192Z,37.29
2023-03-18T10:01:08.445Z,37.48
2023-03-18T10:03:43.759Z,37.35
2023-03-18T10:06:18.301Z,37.36
2023-03-18T10:08:57.553Z,37.42
2023-03-18T10:11:33.504Z,37.54
2023-03-18T10:14:31.908Z,37.85
2023-03-18T10:17:20.592Z,37.44
2023-03-18T10:19:54.902Z,37.87
2023-03-18T10:22:48.481Z,37.22
2023-03-18T10:25:27.608Z,37.24
2023-03-18T10:28:19.369Z,36.95
2023-03-18T10:31:04.794Z,36.55
2023-03-18T10:33:46.354Z,36.83
2023-03-18T10:36:23.516Z,36.91
2023-03-18T10:38:55.115Z,36.46
2023-03-18T10:41:30.870Z,36.14
2023-03-18T10:44:05.753Z,36.07
2023-03-18T10:46:37.790Z,36.57
2023-03-18T10:49:13.387Z,36.14
2023-03-18T10:51:51.293Z,37.05
2023-03-18T10:54:28.942Z,37.38
2023-03-18T10:56:58.040Z,37.66
2023-03-18T10:59:31.089Z,37.46
2023-03-18T11:02:06.308Z,37.35
2023-03-18T11:04:46.517Z,37.53
2023-03-18T11:07:21.081Z,37.30
2023-03-18T11:09:49.889Z,37.18
2023-03-18T11:12:25.661Z,37.14
2023-03-18T11:14:56.370Z,37.08
2023-03-18T11:17:33.317Z,37.35
2023-03-18T11:20:07.973Z,37.19
2023-03-18T11:22:37.811Z,36.65
2023-03-18T11:25:16.654Z,36.95
2023-03-18T11:27:51.782Z,36.97
2023-03-18T11:30:34.906Z,37.05
2023-03-18T11:33:15.496Z,36.88
2023-03-18T11:35:48.394Z,36.75
2023-03-18T11:38:20.909Z,36.86
2023-03-18T11:40:49.928Z,36.79
2023-03-18T11:43:22.034Z,36.57
2023-03-18T11:46:00.164Z,36.47
2023-03-18T11:48:37.850Z,36.87
2023-03-18T11:51:44.616Z,36.69
2023-03-18T11:54:41.111Z,36.92
2023-03-18T11:57:17.654Z,36.91
2023-03-18T12:00:18.651Z,36.94
2023-03-18T12:03:26.200Z,36.81
2023-03-18T12:06:16.480Z,36.46
2023-03-18T12:09:01.655Z,36.66
2023-03-18T12:11:55.196Z,36.46
2023-03-18T12:14:37.732Z,36.26
2023-03-18T12:17:23.518Z,36.52
2023-03-18T12:20:54.264Z,36.34
2023-03-18T12:23:41.360Z,36.22
2023-03-18T12:26:16.564Z,36.55
2023-03-18T12:29:24.273Z,36.68
2023-03-18T12:32:11.186Z,36.83
2023-03-18T12:35:09.739Z,36.90
2023-03-18T12:38:08.634Z,37.17
2023-03-18T12:40:55.629Z,37.27
2023-03-18T12:43:51.725Z,37.83
2023-03-18T12:46:32.929Z,38.18
2023-03-18T12:49:13.257Z,37.42
2023-03-18T12:51:50.021Z,37.90
2023-03-18T12:54:28.769Z,38.11
2023-03-18T12:57:06.153Z,38.28
2023-03-18T12:59:39.412Z,38.23
2023-03-18T13:02:39.414Z,38.30
2023-03-18T13:05:27.552Z,38.12
2023-03-18T13:08:35.659Z,38.41
2023-03-18T13:11:20.352Z,38.55
2023-03-18T13:13:56.207Z,38.44
2023-03-18T13:16:25.734Z,38.26
2023-03-18T13:18:57.450Z,38.78
2023-03-18T13:21:30.975Z,39.12
2023-03-18T13:24:21.962Z,39.02
2023-03-18T13:27:09.708Z,38.73
2023-03-18T13:29:45.248Z,38.92
2023-03-18T13:32:36.311Z,38.94
2023-03-18T13:35:22.378Z,38.91
2023-03-18T13:38:19.781Z,39.00
2023-03-18T13:41:08.629Z,39.39
2023-03-18T13:43:42.640Z,39.74
2023-03-18T13:46:22.329Z,39.78
2023-03-18T13:48:57.304Z,39.63
2023-03-18T13:51:50.330Z,39.82
2023-03-18T13:54:20.781Z,40.20
2023-03-18T13:56:55.615Z,40.48
2023-03-18T13:59:50.237Z,40.88
2023-03-18T14:02:33.489Z,40.89
2023-03-18T14:05:02.542Z,41.10
2023-03-18T14:07:31.362Z,41.36
2023-03-18T14:10:20.418Z,41.40
2023-03-18T14:12:49.677Z,41.96
2023-03-18T14:15:44.524Z,42.14
2023-03-18T14:18:36.848Z,42.60
2023-03-18T14:21:08.797Z,42.42
2023-03-18T14:23:40.941Z,42.70
2023-03-18T14:26:20.576Z,43.22
2023-03-18T14:28:56.257Z,43.39
2023-03-18T14:31:51.386Z,43.53
2023-03-18T14:34:26.767Z,43.55
2023-03-18T14:37:27.813Z,43.85
2023-03-18T14:40:01.484Z,44.32
2023-03-18T14:42:38.308Z,44.55
2023-03-18T14:45:14.063Z,44.92
2023-03-18T14:47:49.452Z,44.98
2023-03-18T14:50:29.431Z,45.28
2023-03-18T14:53:03.843Z,45.85
2023-03-18T14:55:35.897Z,45.93
2023-03-18T14:58:05.570Z,45.99
2023-03-18T15:00:36.642Z,46.15
2023-03-18T15:03:10.387Z,46.22
2023-03-18T15:05:42.660Z,46.49
2023-03-18T15:08:17.289Z,46.68
2023-03-18T15:10:49.660Z,46.99
2023-03-18T15:13:22.744Z,47.01
2023-03-18T15:15:54.908Z,47.31
2023-03-18T15:18:29.686Z,47.77
2023-03-18T15:21:04.753Z,47.63
2023-03-18T15:23:37.194Z,47.98
2023-03-18T15:26:09.947Z,48.07
2023-03-18T15:28:38.957Z,48.01
2023-03-18T15:31:07.866Z,48.09
2023-03-18T15:33:39.927Z,48.30
2023-03-18T15:36:16.520Z,48.59
2023-03-18T15:38:48.354Z,48.55
2023-03-18T15:41:21.862Z,48.69
2023-03-18T15:43:53.233Z,48.67
2023-03-18T15:46:27.242Z,48.99
2023-03-18T15:48:59.561Z,49.08
2023-03-18T15:51:31.452Z,49.05
2023-03-18T15:54:04.852Z,49.18
2023-03-18T15:56:36.195Z,49.43
2023-03-18T15:59:09.171Z,49.53
2023-03-18T16:01:38.385Z,49.79
2023-03-18T16:04:13.364Z,50.16
2023-03-18T16:06:42.231Z,50.24
2023-03-18T16:09:19.362Z,51.00
2023-03-18T16:11:51.810Z,51.69
2023-03-18T16:14:22.707Z,51.68
2023-03-18T16:16:51.819Z,51.69
2023-03-18T16:19:27.832Z,51.77
2023-03-18T16:21:58.374Z,52.16
2023-03-18T16:24:27.692Z,52.10
2023-03-18T16:26:57.650Z,52.55
2023-03-18T16:29:31.612Z,52.82
2023-03-18T16:32:01.191Z,52.74
2023-03-18T16:34:32.231Z,52.51
2023-03-18T16:37:01.774Z,52.43
2023-03-18T16:39:36.100Z,52.94
2023-03-18T16:42:06.643Z,52.78
2023-03-18T16:44:36.333Z,52.87
2023-03-18T16:47:05.099Z,53.19
2023-03-18T16:49:37.293Z,53.42
2023-03-18T16:52:06.718Z,53.64
2023-03-18T16:54:36.011Z,53.51
2023-03-18T16:57:06.876Z,53.82
2023-03-18T16:59:38.326Z,54.13
2023-03-18T17:02:18.196Z,54.66
2023-03-18T17:04:48.268Z,54.88
2023-03-18T17:07:16.983Z,55.09
2023-03-18T17:09:45.752Z,55.35
2023-03-18T17:12:16.004Z,56.05
2023-03-18T17:14:49.722Z,56.38
2023-03-18T17:17:23.719Z,56.49
2023-03-18T17:19:53.855Z,56.46
2023-03-18T17:22:24.287Z,57.49
2023-03-18T17:24:53.226Z,57.29
2023-03-18T17:27:25.605Z,57.63
2023-03-18T17:29:54.801Z,58.11
2023-03-18T17:32:23.658Z,57.92
2023-03-18T17:34:54.884Z,58.49
2023-03-18T17:37:24.593Z,58.57
2023-03-18T17:39:53.421Z,59.11
2023-03-18T17:42:32.518Z,59.58
2023-03-18T17:45:06.770Z,59.51
2023-03-18T17:47:36.780Z,59.54
2023-03-18T17:50:08.219Z,60.22
2023-03-18T17:52:38.339Z,60.13
2023-03-18T17:55:15.301Z,60.47
2023-03-18T17:57:44.426Z,60.30
2023-03-18T18:00:21.509Z,60.65
2023-03-18T18:02:50.775Z,61.15
2023-03-18T18:05:23.972Z,61.03
2023-03-18T18:07:53.198Z,61.95
2023-03-18T18:10:23.001Z,61.59
2023-03-18T18:12:53.032Z,61.67
2023-03-18T18:15:25.552Z,61.91
2023-03-18T18:17:59.890Z,61.71
2023-03-18T18:20:30.056Z,62.58
2023-03-18T18:22:59.463Z,62.48
2023-03-18T18:25:31.236Z,64.08
2023-03-18T18:28:00.561Z,63.14
2023-03-18T18:30:29.609Z,63.78
2023-03-18T18:32:58.642Z,63.84
2023-03-18T18:35:27.486Z,64.96
2023-03-18T18:37:57.430Z,64.05
2023-03-18T18:40:26.452Z,64.35
2023-03-18T18:42:55.165Z,65.21
2023-03-18T18:45:24.441Z,65.83
2023-03-18T18:47:53.597Z,65.72
2023-03-18T18:50:28.471Z,65.25
2023-03-18T18:52:59.313Z,66.15
2023-03-18T18:55:28.206Z,66.11
2023-03-18T18:57:57.943Z,66.19
2023-03-18T19:00:27.423Z,66.03
2023-03-18T19:02:57.720Z,66.57
2023-03-18T19:05:26.971Z,66.30
2023-03-18T19:07:57.986Z,66.86
2023-03-18T19:10:26.816Z,66.93
2023-03-18T19:12:56.652Z,67.18
2023-03-18T19:15:26.080Z,67.91
2023-03-18T19:17:55.287Z,68.88
2023-03-18T19:20:30.498Z,68.10
2023-03-18T19:23:00.702Z,68.90
2023-03-18T19:25:29.684Z,68.20
2023-03-18T19:28:00.274Z,68.57
2023-03-18T19:30:29.443Z,69.26
2023-03-18T19:32:59.921Z,69.39
2023-03-18T19:35:29.267Z,69.45
2023-03-18T19:37:59.597Z,69.76
2023-03-18T19:40:31.923Z,70.37
2023-03-18T19:43:01.456Z,70.51
2023-03-18T19:45:30.894Z,70.22
2023-03-18T19:48:01.534Z,70.35
2023-03-18T19:50:30.641Z,70.68
2023-03-18T19:53:01.114Z,70.81
2023-03-18T19:55:30.513Z,71.01
2023-03-18T19:58:00.591Z,70.48
2023-03-18T20:00:30.694Z,70.77
2023-03-18T20:02:59.947Z,71.25
2023-03-18T20:05:29.220Z,70.93
2023-03-18T20:08:02.065Z,71.72
2023-03-18T20:10:31.661Z,71.61
2023-03-18T20:13:00.590Z,72.70
2023-03-18T20:15:30.464Z,72.24
2023-03-18T20:18:00.927Z,71.88
2023-03-18T20:20:32.628Z,72.36
2023-03-18T20:23:06.421Z,72.23
2023-03-18T20:25:37.648Z,71.86
2023-03-18T20:28:08.088Z,71.72
2023-03-18T20:30:38.196Z,71.30
2023-03-18T20:33:09.785Z,71.53
2023-03-18T20:35:41.475Z,71.78
2023-03-18T20:38:19.606Z,71.72
2023-03-18T20:40:49.054Z,71.91
2023-03-18T20:43:18.877Z,71.57
2023-03-18T20:45:47.837Z,72.15
2023-03-18T20:48:17.509Z,72.21
2023-03-18T20:50:46.924Z,72.40
2023-03-18T20:53:20.141Z,72.70
2023-03-18T20:55:49.724Z,72.71
2023-03-18T20:58:20.451Z,73.25
2023-03-18T21:00:49.433Z,72.79
2023-03-18T21:03:24.067Z,72.49
2023-03-18T21:05:55.064Z,73.18
2023-03-18T21:08:25.960Z,73.76
2023-03-18T21:10:55.415Z,73.99
2023-03-18T21:13:28.936Z,73.32
2023-03-18T21:15:58.533Z,73.39
2023-03-18T21:18:28.291Z,73.40
2023-03-18T21:20:57.989Z,73.45
2023-03-18T21:23:30.031Z,73.29
2023-03-18T21:25:59.283Z,73.24
2023-03-18T21:28:30.665Z,73.99
2023-03-18T21:31:01.468Z,73.61
2023-03-18T21:33:32.738Z,73.14
2023-03-18T21:36:02.291Z,73.95
2023-03-18T21:38:34.942Z,73.30
2023-03-18T21:41:04.171Z,73.42
2023-03-18T21:43:35.275Z,73.25
2023-03-18T21:46:05.458Z,73.78
2023-03-18T21:48:34.389Z,73.14
2023-03-18T21:51:03.443Z,73.90
2023-03-18T21:53:33.773Z,73.61
2023-03-18T21:56:02.475Z,73.49
2023-03-18T21:58:31.238Z,73.90
2023-03-18T22:01:01.397Z,73.49
2023-03-18T22:03:34.983Z,73.83
2023-03-18T22:06:03.707Z,73.80
2023-03-18T22:08:33.755Z,73.49
2023-03-18T22:11:02.462Z,73.42
2023-03-18T22:13:31.153Z,73.62
2023-03-18T22:15:59.868Z,73.17
2023-03-18T22:18:28.596Z,73.35
2023-03-18T22:20:58.526Z,73.28
2023-03-18T22:23:31.270Z,73.32
2023-03-18T22:26:01.385Z,74.04
2023-03-18T22:28:32.295Z,73.86
2023-03-18T22:31:03.460Z,75.06
2023-03-18T22:33:34.644Z,74.73
2023-03-18T22:36:03.383Z,75.66
2023-03-18T22:38:32.372Z,75.55
2023-03-18T22:41:02.440Z,75.23
2023-03-18T22:43:33.704Z,76.02
2023-03-18T22:46:04.372Z,77.01
2023-03-18T22:48:33.194Z,76.57
2023-03-18T22:51:02.842Z,76.14
2023-03-18T22:53:34.060Z,76.12
2023-03-18T22:56:09.501Z,77.11
2023-03-18T22:58:38.772Z,76.80
2023-03-18T23:01:08.144Z,76.59
2023-03-18T23:03:40.426Z,76.40
2023-03-18T23:06:13.158Z,76.38
2023-03-18T23:08:41.966Z,77.32
2023-03-18T23:11:12.931Z,77.11
2023-03-18T23:13:42.959Z,76.57
2023-03-18T23:16:17.318Z,76.68
2023-03-18T23:18:46.359Z,77.30
2023-03-18T23:21:18.317Z,76.64
2023-03-18T23:23:47.514Z,76.74
2023-03-18T23:26:18.140Z,76.63
2023-03-18T23:28:46.994Z,77.97
2023-03-18T23:31:16.574Z,79.47
2023-03-18T23:33:47.106Z,79.56
2023-03-18T23:36:16.026Z,79.27
2023-03-18T23:38:44.779Z,79.67
2023-03-18T23:41:13.604Z,79.70
2023-03-18T23:43:43.676Z,79.57
2023-03-18T23:46:12.441Z,79.48
2023-03-18T23:48:41.303Z,79.45
2023-03-18T23:51:09.995Z,79.04
2023-03-18T23:53:38.353Z,78.43
2023-03-18T23:56:07.469Z,78.40
2023-03-18T23:58:36.413Z,78.64
